createdAt,value
2019-02-24T00:00:48.616Z,6.50
2019-02-24T00:03:17.727Z,7.47
2019-02-24T00:05:47.095Z,6.70
2019-02-24T00:08:16.214Z,6.63
2019-02-24T00:10:45.319Z,7.07
2019-02-24T00:13:13.959Z,6.63
2019-02-24T00:15:42.824Z,6.80
2019-02-24T00:18:11.695Z,6.10
2019-02-24T00:20:40.624Z,7.07
2019-02-24T00:23:09.946Z,7.10
2019-02-24T00:25:38.845Z,7.40
2019-02-24T00:28:07.750Z,6.80
2019-02-24T00:30:36.871Z,6.77
2019-02-24T00:33:05.730Z,6.87
2019-02-24T00:35:35.125Z,8.03
2019-02-24T00:38:03.756Z,6.97
2019-02-24T00:40:32.627Z,7.40
2019-02-24T00:43:01.494Z,7.53
2019-02-24T00:45:30.383Z,6.50
2019-02-24T00:47:59.203Z,7.70
2019-02-24T00:50:27.824Z,7.10
2019-02-24T00:52:56.444Z,6.87
2019-02-24T00:55:25.305Z,7.53
2019-02-24T00:57:54.216Z,7.27
2019-02-24T01:00:22.820Z,8.13
2019-02-24T01:02:51.931Z,7.57
2019-02-24T01:05:20.561Z,7.20
2019-02-24T01:07:49.422Z,7.57
2019-02-24T01:10:18.292Z,7.60
2019-02-24T01:12:46.917Z,7.70
2019-02-24T01:15:15.780Z,7.97
2019-02-24T01:17:44.633Z,7.67
2019-02-24T01:20:13.324Z,7.20
2019-02-24T01:22:42.290Z,7.60
2019-02-24T01:25:11.164Z,7.90
2019-02-24T01:27:40.121Z,7.70
2019-02-24T01:30:09.445Z,7.67
2019-02-24T01:32:38.061Z,7.80
2019-02-24T01:35:07.460Z,8.23
2019-02-24T01:37:36.355Z,7.80
2019-02-24T01:40:05.492Z,7.30
2019-02-24T01:42:34.116Z,8.33
2019-02-24T01:45:02.744Z,8.10
2019-02-24T01:47:31.641Z,8.50
2019-02-24T01:50:00.295Z,7.67
2019-02-24T01:52:29.397Z,7.63
2019-02-24T01:54:58.272Z,8.53
2019-02-24T01:57:27.672Z,7.67
2019-02-24T01:59:56.572Z,7.43
2019-02-24T02:02:25.177Z,7.90
2019-02-24T02:04:54.067Z,7.70
2019-02-24T02:07:23.181Z,8.10
2019-02-24T02:09:52.047Z,7.70
2019-02-24T02:12:20.747Z,7.20
2019-02-24T02:14:49.980Z,7.63
2019-02-24T02:17:19.100Z,9.07
2019-02-24T02:19:47.744Z,8.70
2019-02-24T02:22:16.649Z,8.35
2019-02-24T02:24:45.533Z,7.73
2019-02-24T02:27:14.903Z,8.70
2019-02-24T02:29:44.010Z,8.40
2019-02-24T02:32:12.707Z,8.63
2019-02-24T02:34:41.343Z,8.67
2019-02-24T02:37:10.275Z,7.90
2019-02-24T02:39:39.145Z,7.93
2019-02-24T02:42:08.057Z,8.70
2019-02-24T02:44:36.898Z,8.13
2019-02-24T02:47:05.534Z,8.35
2019-02-24T02:49:34.376Z,8.43
2019-02-24T02:52:03.511Z,8.73
2019-02-24T02:54:32.404Z,9.00
2019-02-24T02:57:01.774Z,9.65
2019-02-24T02:59:30.650Z,9.27
2019-02-24T03:02:00.325Z,8.88
2019-02-24T03:04:28.925Z,8.13
2019-02-24T03:07:19.858Z,8.48
2019-02-24T03:09:49.237Z,9.38
2019-02-24T03:12:18.095Z,8.50
2019-02-24T03:14:46.760Z,9.05
2019-02-24T03:17:15.655Z,8.83
2019-02-24T03:19:44.756Z,9.00
2019-02-24T03:22:13.637Z,8.40
2019-02-24T03:24:42.279Z,8.60
2019-02-24T03:27:11.167Z,8.67
2019-02-24T03:29:40.044Z,8.48
2019-02-24T03:32:08.910Z,8.70
2019-02-24T03:34:37.791Z,9.38
2019-02-24T03:37:06.679Z,9.40
2019-02-24T03:39:35.284Z,9.60
2019-02-24T03:42:04.524Z,9.78
2019-02-24T03:44:33.416Z,9.68
2019-02-24T03:47:02.025Z,8.63
2019-02-24T03:49:30.974Z,9.43
2019-02-24T03:51:59.950Z,9.23
2019-02-24T03:54:28.640Z,8.73
2019-02-24T03:56:57.262Z,9.77
2019-02-24T03:59:25.909Z,9.43
2019-02-24T04:01:54.793Z,9.13
2019-02-24T04:04:23.650Z,9.43
2019-02-24T04:06:52.527Z,10.23
2019-02-24T04:09:21.380Z,9.50
2019-02-24T04:11:50.733Z,9.63
2019-02-24T04:14:19.648Z,9.70
2019-02-24T04:16:48.774Z,10.33
2019-02-24T04:19:17.650Z,9.80
2019-02-24T04:21:46.524Z,10.70
2019-02-24T04:24:15.627Z,9.50
2019-02-24T04:26:44.799Z,10.45
2019-02-24T04:29:13.907Z,9.40
2019-02-24T04:31:42.759Z,10.90
2019-02-24T04:34:11.397Z,10.40
2019-02-24T04:36:40.010Z,10.73
2019-02-24T04:39:08.911Z,11.55
2019-02-24T04:41:38.351Z,11.70
2019-02-24T04:44:07.229Z,11.37
2019-02-24T04:46:36.135Z,10.55
2019-02-24T04:49:05.262Z,10.90
2019-02-24T04:51:34.383Z,10.77
2019-02-24T04:54:03.272Z,11.35
2019-02-24T04:56:32.177Z,10.70
2019-02-24T04:59:01.584Z,11.05
2019-02-24T05:01:30.541Z,10.82
2019-02-24T05:03:59.202Z,11.95
2019-02-24T05:06:27.837Z,11.22
2019-02-24T05:08:57.007Z,11.40
2019-02-24T05:11:25.921Z,11.13
2019-02-24T05:13:54.592Z,11.95
2019-02-24T05:16:23.487Z,12.25
2019-02-24T05:18:52.124Z,11.90
2019-02-24T05:21:20.986Z,12.63
2019-02-24T05:23:49.628Z,11.70
2019-02-24T05:26:18.265Z,12.17
2019-02-24T05:28:46.907Z,12.33
2019-02-24T05:31:15.867Z,12.13
2019-02-24T05:33:44.820Z,12.57
2019-02-24T05:36:13.477Z,12.20
2019-02-24T05:38:42.608Z,12.30
2019-02-24T05:41:11.730Z,12.37
2019-02-24T05:43:40.381Z,12.57
2019-02-24T05:46:09.214Z,11.83
2019-02-24T05:48:37.884Z,12.33
2019-02-24T05:51:06.755Z,11.85
2019-02-24T05:53:35.596Z,12.03
2019-02-24T05:56:04.483Z,11.60
2019-02-24T05:58:33.107Z,11.63
2019-02-24T06:01:02.483Z,12.30
2019-02-24T06:03:31.143Z,12.63
2019-02-24T06:06:00.249Z,12.50
2019-02-24T06:08:29.110Z,12.07
2019-02-24T06:10:58.496Z,12.83
2019-02-24T06:13:27.141Z,12.23
2019-02-24T06:15:56.273Z,11.73
2019-02-24T06:18:25.409Z,12.27
2019-02-24T06:20:54.312Z,13.30
2019-02-24T06:23:22.972Z,12.37
2019-02-24T06:25:51.861Z,14.20
2019-02-24T06:28:20.942Z,13.03
2019-02-24T06:30:50.083Z,14.43
2019-02-24T06:33:18.944Z,14.63
2019-02-24T06:35:48.101Z,14.35
2019-02-24T06:38:16.757Z,14.37
2019-02-24T06:40:45.835Z,14.50
2019-02-24T06:43:14.690Z,14.00
2019-02-24T06:45:43.698Z,13.03
2019-02-24T06:48:12.573Z,12.70
2019-02-24T06:50:54.385Z,13.40
2019-02-24T06:53:23.285Z,12.67
2019-02-24T06:55:52.008Z,13.10
2019-02-24T06:58:21.137Z,13.50
2019-02-24T07:00:50.253Z,12.57
2019-02-24T07:03:19.374Z,13.60
2019-02-24T07:05:48.249Z,13.17
2019-02-24T07:08:17.162Z,13.60
2019-02-24T07:10:46.294Z,13.87
2019-02-24T07:13:15.706Z,13.80
2019-02-24T07:15:44.613Z,13.53
2019-02-24T07:18:13.307Z,14.40
2019-02-24T07:20:42.234Z,13.80
2019-02-24T07:23:11.631Z,14.43
2019-02-24T07:25:40.485Z,14.97
2019-02-24T07:28:09.136Z,14.03
2019-02-24T07:30:38.070Z,13.90
2019-02-24T07:33:06.923Z,14.27
2019-02-24T07:35:35.617Z,14.67
2019-02-24T07:38:04.724Z,14.53
2019-02-24T07:40:33.327Z,13.83
2019-02-24T07:43:02.487Z,13.53
2019-02-24T07:45:31.391Z,14.03
2019-02-24T07:48:00.500Z,15.07
2019-02-24T07:50:29.468Z,14.17
2019-02-24T07:52:58.097Z,13.47
2019-02-24T07:55:26.725Z,14.17
2019-02-24T07:57:55.627Z,15.27
2019-02-24T08:00:32.045Z,14.10
2019-02-24T08:02:54.879Z,14.70
2019-02-24T08:05:23.868Z,14.27
2019-02-24T08:07:52.529Z,14.67
2019-02-24T08:10:21.404Z,14.40
2019-02-24T08:12:50.534Z,14.30
2019-02-24T08:15:19.270Z,14.73
2019-02-24T08:17:48.152Z,14.03
2019-02-24T08:20:17.274Z,14.60
2019-02-24T08:22:46.388Z,14.60
2019-02-24T08:25:15.273Z,13.87
2019-02-24T08:27:43.949Z,14.33
2019-02-24T08:30:12.661Z,15.30
2019-02-24T08:32:41.857Z,14.47
2019-02-24T08:35:10.597Z,14.57
2019-02-24T08:37:39.711Z,13.87
2019-02-24T08:40:08.927Z,14.10
2019-02-24T08:42:37.862Z,13.83
2019-02-24T08:45:07.527Z,13.90
2019-02-24T08:47:36.160Z,12.83
2019-02-24T08:50:05.775Z,14.73
2019-02-24T08:52:34.415Z,14.00
2019-02-24T08:55:03.038Z,14.97
2019-02-24T08:57:32.271Z,14.40
2019-02-24T09:00:01.260Z,13.40
2019-02-24T09:02:30.126Z,14.77
2019-02-24T09:04:59.012Z,14.87
2019-02-24T09:07:27.649Z,14.70
2019-02-24T09:09:56.282Z,14.23
2019-02-24T09:12:24.953Z,14.10
2019-02-24T09:14:53.837Z,14.30
2019-02-24T09:17:23.312Z,14.50
2019-02-24T09:19:51.977Z,14.33
2019-02-24T09:22:20.616Z,13.77
2019-02-24T09:24:49.252Z,13.50
2019-02-24T09:27:18.476Z,13.93
2019-02-24T09:29:47.356Z,14.17
2019-02-24T09:32:16.304Z,14.47
2019-02-24T09:34:44.953Z,14.87
2019-02-24T09:37:14.107Z,14.67
2019-02-24T09:39:42.761Z,13.87
2019-02-24T09:42:14.205Z,14.13
2019-02-24T09:44:43.099Z,14.07
2019-02-24T09:47:12.319Z,14.13
2019-02-24T09:49:41.445Z,14.30
2019-02-24T09:52:10.340Z,14.83
2019-02-24T09:54:39.276Z,14.93
2019-02-24T09:57:08.232Z,14.80
2019-02-24T09:59:37.566Z,13.87
2019-02-24T10:02:06.598Z,13.83
2019-02-24T10:04:35.478Z,14.30
2019-02-24T10:07:04.665Z,14.83
2019-02-24T10:09:33.543Z,14.77
2019-02-24T10:12:02.189Z,15.77
2019-02-24T10:14:31.096Z,15.33
2019-02-24T10:16:59.979Z,15.57
2019-02-24T10:19:31.177Z,15.60
2019-02-24T10:21:59.709Z,14.63
2019-02-24T10:24:28.573Z,16.37
2019-02-24T10:26:57.443Z,15.40
2019-02-24T10:29:26.340Z,15.53
2019-02-24T10:31:55.199Z,14.77
2019-02-24T10:34:23.840Z,15.53
2019-02-24T10:36:52.813Z,15.50
2019-02-24T10:39:29.532Z,15.63
2019-02-24T10:41:53.736Z,14.87
2019-02-24T10:44:22.640Z,15.03
2019-02-24T10:46:51.775Z,16.20
2019-02-24T10:49:20.666Z,15.90
2019-02-24T10:51:49.295Z,14.67
2019-02-24T10:54:18.155Z,15.17
2019-02-24T10:56:47.104Z,14.73
2019-02-24T10:59:16.988Z,14.83
2019-02-24T11:01:45.755Z,15.57
2019-02-24T11:04:15.412Z,14.57
2019-02-24T11:06:44.649Z,14.20
2019-02-24T11:09:13.856Z,14.83
2019-02-24T11:11:43.107Z,15.07
2019-02-24T11:14:12.059Z,14.60
2019-02-24T11:16:40.924Z,14.80
2019-02-24T11:19:09.803Z,14.73
2019-02-24T11:21:38.449Z,14.97
2019-02-24T11:24:07.093Z,15.53
2019-02-24T11:26:36.029Z,14.93
2019-02-24T11:29:04.743Z,15.00
2019-02-24T11:31:38.396Z,15.97
2019-02-24T11:34:03.774Z,14.97
2019-02-24T11:36:32.514Z,14.73
2019-02-24T11:39:01.388Z,14.13
2019-02-24T11:41:30.763Z,12.70
2019-02-24T11:43:59.506Z,14.17
2019-02-24T11:46:28.400Z,13.63
2019-02-24T11:48:57.299Z,14.00
2019-02-24T11:51:25.954Z,13.67
2019-02-24T11:53:54.929Z,12.63
2019-02-24T11:56:23.818Z,14.37
2019-02-24T11:58:52.842Z,14.63
2019-02-24T12:01:21.938Z,14.60
2019-02-24T12:03:50.842Z,14.43
2019-02-24T12:06:19.746Z,14.30
2019-02-24T12:08:48.605Z,14.87
2019-02-24T12:11:18.045Z,14.60
2019-02-24T12:13:47.176Z,13.70
2019-02-24T12:16:16.051Z,13.77
2019-02-24T12:18:44.960Z,13.80
2019-02-24T12:21:14.128Z,13.57
2019-02-24T12:23:43.240Z,13.33
2019-02-24T12:26:12.384Z,12.60
2019-02-24T12:28:41.517Z,14.00
2019-02-24T12:31:10.664Z,12.50
2019-02-24T12:33:39.415Z,12.93
2019-02-24T12:36:08.046Z,14.27
2019-02-24T12:38:37.244Z,13.17
2019-02-24T12:41:06.227Z,13.97
2019-02-24T12:43:35.095Z,13.57
2019-02-24T12:46:04.021Z,13.37
2019-02-24T12:48:32.663Z,14.63
2019-02-24T12:51:01.270Z,14.30
2019-02-24T12:53:30.139Z,13.40
2019-02-24T12:55:59.365Z,13.47
2019-02-24T12:58:28.575Z,13.83
2019-02-24T13:00:57.548Z,13.87
2019-02-24T13:03:26.179Z,13.80
2019-02-24T13:05:55.054Z,14.63
2019-02-24T13:08:23.951Z,15.47
2019-02-24T13:10:52.592Z,14.97
2019-02-24T13:13:21.461Z,14.87
2019-02-24T13:15:50.575Z,14.20
2019-02-24T13:18:19.226Z,14.97
2019-02-24T13:20:48.102Z,14.70
2019-02-24T13:23:16.993Z,14.57
2019-02-24T13:25:45.875Z,15.67
2019-02-24T13:28:14.732Z,15.70
2019-02-24T13:30:43.622Z,15.30
2019-02-24T13:33:12.587Z,14.57
2019-02-24T13:35:41.216Z,13.90
2019-02-24T13:38:10.363Z,15.50
2019-02-24T13:40:39.216Z,15.80
2019-02-24T13:43:08.334Z,14.83
2019-02-24T13:45:37.218Z,14.43
2019-02-24T13:48:05.837Z,15.00
2019-02-24T13:50:34.699Z,14.10
2019-02-24T13:53:03.865Z,15.17
2019-02-24T13:55:32.502Z,14.80
2019-02-24T13:58:01.675Z,14.27
2019-02-24T14:00:30.627Z,14.23
2019-02-24T14:02:59.568Z,12.90
2019-02-24T14:05:28.769Z,12.80
2019-02-24T14:07:57.408Z,12.17
2019-02-24T14:10:26.038Z,12.43
2019-02-24T14:12:54.935Z,13.13
2019-02-24T14:15:23.662Z,13.47
2019-02-24T14:17:52.300Z,12.50
2019-02-24T14:20:20.961Z,12.77
2019-02-24T14:22:50.305Z,12.67
2019-02-24T14:25:19.243Z,13.90
2019-02-24T14:27:47.992Z,13.03
2019-02-24T14:30:16.703Z,13.30
2019-02-24T14:32:45.652Z,13.13
2019-02-24T14:35:14.869Z,14.30
2019-02-24T14:37:43.498Z,15.73
2019-02-24T14:40:12.435Z,12.53
2019-02-24T14:42:41.075Z,12.90
2019-02-24T14:45:12.300Z,11.90
2019-02-24T14:47:41.263Z,11.13
2019-02-24T14:50:10.176Z,11.30
2019-02-24T14:52:38.832Z,13.10
2019-02-24T14:55:08.281Z,12.53
2019-02-24T14:57:36.863Z,13.30
2019-02-24T15:00:06.451Z,13.37
2019-02-24T15:02:42.133Z,14.03
2019-02-24T15:05:06.729Z,13.33
2019-02-24T15:07:35.612Z,13.37
2019-02-24T15:10:04.909Z,12.67
2019-02-24T15:12:33.808Z,13.50
2019-02-24T15:15:02.455Z,13.07
2019-02-24T15:17:31.347Z,13.30
2019-02-24T15:20:00.452Z,13.67
2019-02-24T15:22:29.602Z,14.43
2019-02-24T15:24:58.749Z,14.63
2019-02-24T15:27:27.631Z,14.00
2019-02-24T15:29:56.796Z,14.13
2019-02-24T15:32:25.711Z,13.70
2019-02-24T15:34:55.104Z,13.70
2019-02-24T15:37:23.739Z,13.40
2019-02-24T15:39:52.887Z,13.10
2019-02-24T15:42:21.775Z,11.73
2019-02-24T15:44:50.672Z,12.60
2019-02-24T15:47:19.552Z,11.43
2019-02-24T15:49:48.182Z,11.87
2019-02-24T15:52:17.332Z,12.53
2019-02-24T15:54:46.245Z,16.40
2019-02-24T15:57:14.879Z,12.27
2019-02-24T15:59:47.833Z,12.13
2019-02-24T16:02:17.112Z,12.13
2019-02-24T16:04:45.757Z,12.40
2019-02-24T16:07:14.616Z,12.93
2019-02-24T16:09:43.494Z,12.50
2019-02-24T16:12:12.463Z,13.33
2019-02-24T16:14:41.124Z,13.67
2019-02-24T16:17:10.039Z,13.47
2019-02-24T16:19:38.981Z,13.57
2019-02-24T16:22:07.690Z,14.23
2019-02-24T16:24:36.603Z,14.50
2019-02-24T16:27:05.320Z,14.07
2019-02-24T16:29:33.988Z,13.27
2019-02-24T16:32:02.620Z,14.07
2019-02-24T16:34:31.234Z,14.77
2019-02-24T16:37:00.386Z,20.03
2019-02-24T16:39:29.283Z,14.87
2019-02-24T16:41:58.159Z,13.67
2019-02-24T16:44:27.613Z,14.53
2019-02-24T16:46:56.582Z,15.07
2019-02-24T16:49:25.964Z,14.20
2019-02-24T16:51:55.079Z,14.50
2019-02-24T16:54:24.621Z,14.70
2019-02-24T16:56:53.684Z,15.27
2019-02-24T16:59:22.792Z,15.97
2019-02-24T17:01:51.701Z,16.00
2019-02-24T17:04:20.571Z,15.37
2019-02-24T17:06:49.423Z,16.10
2019-02-24T17:09:18.579Z,15.33
2019-02-24T17:11:47.460Z,14.63
2019-02-24T17:14:16.584Z,15.40
2019-02-24T17:16:45.477Z,14.87
2019-02-24T17:19:14.331Z,15.10
2019-02-24T17:21:43.472Z,15.77
2019-02-24T17:24:12.622Z,16.97
2019-02-24T17:26:41.244Z,17.50
2019-02-24T17:29:10.109Z,30.23
2019-02-24T17:31:39.015Z,17.90
2019-02-24T17:34:07.616Z,18.13
2019-02-24T17:36:36.219Z,24.03
2019-02-24T17:39:06.653Z,23.43
2019-02-24T17:41:35.561Z,22.07
2019-02-24T17:44:04.769Z,20.83
2019-02-24T17:46:33.645Z,19.67
2019-02-24T17:49:02.263Z,18.10
2019-02-24T17:51:31.150Z,16.90
2019-02-24T17:54:00.045Z,25.60
2019-02-24T17:56:28.907Z,25.50
2019-02-24T17:59:05.937Z,21.77
2019-02-24T18:01:34.877Z,19.67
2019-02-24T18:04:04.714Z,19.73
2019-02-24T18:06:33.594Z,18.67
2019-02-24T18:09:02.475Z,18.43
2019-02-24T18:11:31.369Z,19.90
2019-02-24T18:14:00.283Z,18.33
2019-02-24T18:16:29.165Z,18.23
2019-02-24T18:18:58.394Z,17.87
2019-02-24T18:21:27.272Z,19.07
2019-02-24T18:23:56.189Z,18.93
2019-02-24T18:26:25.064Z,19.20
2019-02-24T18:28:53.948Z,18.67
2019-02-24T18:31:22.565Z,18.83
2019-02-24T18:33:51.232Z,19.97
2019-02-24T18:36:20.091Z,19.37
2019-02-24T18:38:48.685Z,18.77
2019-02-24T18:41:17.543Z,22.97
2019-02-24T18:43:46.214Z,19.97
2019-02-24T18:46:15.122Z,19.60
2019-02-24T18:48:43.755Z,19.97
2019-02-24T18:51:12.878Z,19.93
2019-02-24T18:53:42.064Z,19.00
2019-02-24T18:56:10.981Z,20.07
2019-02-24T18:58:39.870Z,20.13
2019-02-24T19:01:08.596Z,19.50
2019-02-24T19:03:37.473Z,18.97
2019-02-24T19:06:06.427Z,19.67
2019-02-24T19:08:35.426Z,19.93
2019-02-24T19:11:04.137Z,20.47
2019-02-24T19:13:32.982Z,19.90
2019-02-24T19:16:02.184Z,20.43
2019-02-24T19:18:31.296Z,18.47
2019-02-24T19:21:00.394Z,18.10
2019-02-24T19:23:29.320Z,18.43
2019-02-24T19:25:58.037Z,19.10
2019-02-24T19:28:26.701Z,20.10
2019-02-24T19:30:55.614Z,20.30
2019-02-24T19:33:24.729Z,24.20
2019-02-24T19:35:53.619Z,26.03
2019-02-24T19:38:22.991Z,24.27
2019-02-24T19:40:51.700Z,24.13
2019-02-24T19:43:20.428Z,20.43
2019-02-24T19:45:49.296Z,20.57
2019-02-24T19:48:18.035Z,20.70
2019-02-24T19:50:46.969Z,20.77
2019-02-24T19:53:16.127Z,19.10
2019-02-24T19:55:45.000Z,18.80
2019-02-24T19:58:13.862Z,20.37
2019-02-24T20:00:42.774Z,18.67
2019-02-24T20:03:11.814Z,18.83
2019-02-24T20:05:40.910Z,19.37
2019-02-24T20:08:09.841Z,19.17
2019-02-24T20:10:38.926Z,18.63
2019-02-24T20:13:07.792Z,18.53
2019-02-24T20:15:37.079Z,18.83
2019-02-24T20:18:06.206Z,19.13
2019-02-24T20:20:35.107Z,18.57
2019-02-24T20:23:04.086Z,19.87
2019-02-24T20:25:32.970Z,19.60
2019-02-24T20:28:02.341Z,20.13
2019-02-24T20:30:31.004Z,18.90
2019-02-24T20:32:59.608Z,19.00
2019-02-24T20:35:28.559Z,22.63
2019-02-24T20:37:57.538Z,20.70
2019-02-24T20:40:26.248Z,19.57
2019-02-24T20:42:55.361Z,19.20
2019-02-24T20:45:24.258Z,19.13
2019-02-24T20:47:53.092Z,19.57
2019-02-24T20:50:22.152Z,19.20
2019-02-24T20:52:50.784Z,20.00
2019-02-24T20:55:20.096Z,19.97
2019-02-24T20:57:48.714Z,18.97
2019-02-24T21:00:26.098Z,19.87
2019-02-24T21:02:55.209Z,20.07
2019-02-24T21:05:23.851Z,21.10
2019-02-24T21:07:52.758Z,20.03
2019-02-24T21:10:21.536Z,21.20
2019-02-24T21:12:50.665Z,20.20
2019-02-24T21:15:19.406Z,20.90
2019-02-24T21:17:48.035Z,20.90
2019-02-24T21:20:18.692Z,21.07
2019-02-24T21:22:47.402Z,20.60
2019-02-24T21:25:16.499Z,20.77
2019-02-24T21:27:45.619Z,20.67
2019-02-24T21:30:15.640Z,20.47
2019-02-24T21:32:45.640Z,20.47
2019-02-24T21:35:14.755Z,21.03
2019-02-24T21:37:44.638Z,21.13
2019-02-24T21:40:13.897Z,21.53
2019-02-24T21:42:42.571Z,21.07
2019-02-24T21:45:13.602Z,21.73
2019-02-24T21:47:42.922Z,22.00
2019-02-24T21:50:12.665Z,21.50
2019-02-24T21:52:41.624Z,22.00
2019-02-24T21:55:10.767Z,22.20
2019-02-24T21:57:39.999Z,23.40
2019-02-24T22:00:12.172Z,23.13
2019-02-24T22:02:41.122Z,22.77
2019-02-24T22:05:10.140Z,22.13
2019-02-24T22:07:39.166Z,23.23
2019-02-24T22:10:08.991Z,23.27
2019-02-24T22:12:37.939Z,22.40
2019-02-24T22:15:08.586Z,23.77
2019-02-24T22:17:37.736Z,23.03
2019-02-24T22:20:07.149Z,23.40
2019-02-24T22:22:35.797Z,22.67
2019-02-24T22:25:04.905Z,22.73
2019-02-24T22:27:34.060Z,23.53
2019-02-24T22:30:02.916Z,22.73
2019-02-24T22:32:34.342Z,23.53
2019-02-24T22:35:02.996Z,23.17
2019-02-24T22:37:32.403Z,22.53
2019-02-24T22:40:01.524Z,23.27
2019-02-24T22:42:30.435Z,24.60
2019-02-24T22:44:59.571Z,23.53
2019-02-24T22:47:28.435Z,24.03
2019-02-24T22:49:57.341Z,24.03
2019-02-24T22:52:26.201Z,23.07
2019-02-24T22:54:54.904Z,23.77
2019-02-24T22:57:23.577Z,24.03
2019-02-24T22:59:52.833Z,24.73
2019-02-24T23:02:22.790Z,23.93
2019-02-24T23:04:51.964Z,24.40
2019-02-24T23:07:20.899Z,23.50
2019-02-24T23:09:49.802Z,23.00
2019-02-24T23:12:18.759Z,23.37
2019-02-24T23:14:47.886Z,23.10
2019-02-24T23:17:16.548Z,23.63
2019-02-24T23:19:45.199Z,22.77
2019-02-24T23:22:14.050Z,22.60
2019-02-24T23:24:42.927Z,23.17
2019-02-24T23:27:11.558Z,23.27
2019-02-24T23:29:40.190Z,22.83
2019-02-24T23:32:08.848Z,21.90
2019-02-24T23:34:37.786Z,23.47
2019-02-24T23:37:06.664Z,23.27
2019-02-24T23:39:35.756Z,22.40
2019-02-24T23:42:04.658Z,21.77
2019-02-24T23:44:34.018Z,22.77
2019-02-24T23:47:03.144Z,22.57
2019-02-24T23:49:32.459Z,21.87
2019-02-24T23:52:01.339Z,22.67
2019-02-24T23:54:30.463Z,22.43
2019-02-24T23:56:59.103Z,22.57
2019-02-24T23:59:27.839Z,21.90
